Seascale, United Kingdom
Current Conditions -  °F | °C
As of 5:50 PM on Friday 21 Nov 2014 (Local Time) from EGNC Reporting Station
Light Rain Light Rain  
Wind Chill:   Ceiling: 2100
Heat Index:   Visibility: 5mi
Dew Point:   Wind: 9mph
Humidity: 87%   Direction: 130°SE
Pressure: 29.91"   Gusts: NA
Location:  54.4°N, 3.48°W
Report Text: EGNC 211750Z 13008KT 100V160 8000 -RA BKN021 08/06 Q1013
Loading
Personal Weather Stations






























Interactive Weather Map New forecast layout! Learn more

10-Day Weather Forecast

Advertisements
Track Severe Weather on mobile